Time;durP1;ratioP1;P1;durP2;ratioP2;P2;SDS_P1;SDS_P2;PMS_P1;PMS_P2;Temp;Humidity;BMP_temperature;BMP_pressure;BME280_temperature;BME280_humidity;BME280_pressure;Samples;Min_cycle;Max_cycle;Signal;HPM_P1;HPM_P2
2021/04/06 00:00:18;;;;;;;14.45;7.87;;;;;;;1.59;56.51;95964.91;1676270;86;21294;-81
2021/04/06 00:02:50;;;;;;;19.60;8.98;;;;;;;1.56;56.32;95969.83;1675858;86;21140;-83
2021/04/06 00:05:20;;;;;;;14.33;7.70;;;;;;;1.53;56.27;95969.53;1688132;85;21266;-84
2021/04/06 00:07:49;;;;;;;11.88;7.20;;;;;;;1.52;56.83;95970.94;1646947;86;21590;-85
2021/04/06 00:10:25;;;;;;;12.13;7.30;;;;;;;1.51;56.74;95962.33;1647435;86;21155;-83
2021/04/06 00:12:55;;;;;;;10.35;7.37;;;;;;;1.51;56.77;95958.88;1682933;85;21166;-85
2021/04/06 00:15:26;;;;;;;8.60;5.60;;;;;;;1.48;57.06;95952.59;1675933;84;21597;-84
2021/04/06 00:17:59;;;;;;;10.30;5.92;;;;;;;1.47;56.61;95939.23;1677368;84;21204;-85
2021/04/06 00:20:35;;;;;;;13.50;7.45;;;;;;;1.48;56.99;95941.73;1694912;84;21134;-85
2021/04/06 00:23:08;;;;;;;11.68;8.40;;;;;;;1.49;56.90;95934.31;1685085;84;21140;-84
2021/04/06 00:25:44;;;;;;;15.10;8.75;;;;;;;1.50;57.00;95935.12;1690065;84;21129;-85
2021/04/06 00:28:30;;;;;;;14.23;8.43;;;;;;;1.51;57.12;95926.41;1709941;84;21168;-85
2021/04/06 00:31:08;;;;;;;14.90;8.68;;;;;;;1.53;57.08;95928.45;1715159;84;21247;-84
2021/04/06 00:33:46;;;;;;;11.97;7.00;;;;;;;1.52;57.12;95922.89;1718031;82;21262;-83
2021/04/06 00:36:25;;;;;;;15.53;7.75;;;;;;;1.48;57.41;95916.23;1703576;82;21120;-85
2021/04/06 00:38:58;;;;;;;14.55;8.73;;;;;;;1.46;57.25;95915.48;1738416;82;21238;-83
2021/04/06 00:41:26;;;;;;;13.38;8.78;;;;;;;1.46;57.31;95907.70;1715119;82;21171;-82
2021/04/06 00:43:55;;;;;;;12.15;7.33;;;;;;;1.44;57.29;95903.88;1742576;82;21310;-82
2021/04/06 00:46:27;;;;;;;11.75;7.30;;;;;;;1.43;57.59;95900.95;1730135;82;21121;-84
2021/04/06 00:48:56;;;;;;;10.98;6.30;;;;;;;1.43;57.59;95899.64;1734910;82;21116;-85
2021/04/06 00:51:24;;;;;;;6.10;4.25;;;;;;;1.42;58.13;95899.72;1744240;82;21250;-82
2021/04/06 00:54:01;;;;;;;8.93;5.77;;;;;;;1.38;58.53;95905.12;1744253;81;21204;-84
2021/04/06 00:56:33;;;;;;;9.18;6.37;;;;;;;1.32;58.72;95904.19;1745076;82;21202;-83
2021/04/06 00:59:24;;;;;;;14.85;8.73;;;;;;;1.25;58.63;95895.94;1744835;82;21151;-84
2021/04/06 01:02:19;;;;;;;15.05;8.25;;;;;;;1.20;58.86;95896.70;1798892;79;21124;-82
2021/04/06 01:04:51;;;;;;;19.07;11.57;;;;;;;1.10;59.16;95891.70;1778192;79;21246;-83
2021/04/06 01:07:19;;;;;;;20.10;10.88;;;;;;;1.05;59.11;95896.36;1795146;80;21139;-84
2021/04/06 01:09:55;;;;;;;16.83;9.03;;;;;;;1.00;59.40;95893.20;1799016;80;21171;-81
2021/04/06 01:12:29;;;;;;;15.35;9.80;;;;;;;0.99;58.87;95892.37;1799165;79;21251;-84
2021/04/06 01:14:57;;;;;;;18.57;8.98;;;;;;;0.99;59.15;95891.08;1798838;79;21301;-81
2021/04/06 01:17:34;;;;;;;15.93;8.93;;;;;;;0.99;59.63;95895.42;1799128;80;21278;-84
2021/04/06 01:20:09;;;;;;;17.07;9.73;;;;;;;0.96;59.54;95893.85;1799281;79;21238;-85
2021/04/06 01:22:38;;;;;;;18.95;11.12;;;;;;;0.94;59.87;95890.52;1799100;79;21263;-82
2021/04/06 01:25:06;;;;;;;16.25;8.73;;;;;;;0.92;59.47;95881.53;1798786;79;21285;-83
2021/04/06 01:27:34;;;;;;;15.38;8.93;;;;;;;0.89;59.37;95883.01;1798786;80;21166;-84
2021/04/06 01:30:03;;;;;;;18.27;10.90;;;;;;;0.90;59.66;95885.97;1799149;80;21262;-84
2021/04/06 01:32:31;;;;;;;20.08;11.60;;;;;;;0.93;59.23;95887.09;1799111;80;21120;-83
2021/04/06 01:34:59;;;;;;;19.57;10.55;;;;;;;0.95;59.88;95886.98;1799152;79;21132;-83
2021/04/06 01:37:28;;;;;;;14.83;9.07;;;;;;;0.95;59.95;95887.47;1767010;80;21127;-83
2021/04/06 01:39:59;;;;;;;18.77;10.35;;;;;;;0.94;59.64;95880.13;1793080;78;21135;-84
2021/04/06 01:42:30;;;;;;;14.93;8.27;;;;;;;0.92;59.54;95885.91;1832227;78;21131;-82
2021/04/06 01:44:58;;;;;;;13.15;7.35;;;;;;;0.83;61.29;95887.77;1832134;78;21270;-84
2021/04/06 01:47:27;;;;;;;19.80;11.63;;;;;;;0.76;60.57;95883.40;1830210;78;21103;-83
2021/04/06 01:49:56;;;;;;;19.62;10.20;;;;;;;0.69;60.31;95880.33;1832320;78;21565;-83
2021/04/06 01:52:26;;;;;;;11.83;6.60;;;;;;;0.70;60.13;95879.86;1832381;78;21134;-83
2021/04/06 01:55:00;;;;;;;16.10;8.68;;;;;;;0.70;60.03;95872.08;1832038;78;21143;-84
2021/04/06 01:57:37;;;;;;;17.23;8.75;;;;;;;0.66;60.13;95870.61;1832157;78;21115;-85
2021/04/06 02:00:17;;;;;;;13.47;7.43;;;;;;;0.60;60.33;95875.22;1803150;78;21242;-84
2021/04/06 02:02:41;;;;;;;12.90;7.62;;;;;;;0.52;59.98;95868.37;1767673;80;21207;-83
2021/04/06 02:05:11;;;;;;;14.95;8.58;;;;;;;0.49;60.85;95874.20;1753636;82;21092;-83
2021/04/06 02:07:43;;;;;;;12.57;7.47;;;;;;;0.53;60.83;95871.34;1732980;82;21139;-83
2021/04/06 02:10:12;;;;;;;12.50;6.60;;;;;;;0.56;60.52;95875.05;1754035;82;21275;-85
2021/04/06 02:12:44;;;;;;;11.08;6.78;;;;;;;0.60;60.63;95870.52;1787231;79;21160;-83
2021/04/06 02:15:13;;;;;;;16.07;8.37;;;;;;;0.66;60.97;95872.73;1815565;79;21654;-81
2021/04/06 02:17:52;;;;;;;9.63;5.97;;;;;;;0.71;61.18;95866.81;1790508;79;21257;-82
2021/04/06 02:20:25;;;;;;;9.17;6.20;;;;;;;0.74;61.15;95862.72;1796879;79;21237;-84
2021/04/06 02:23:00;;;;;;;13.33;5.80;;;;;;;0.76;60.70;95863.94;1784675;79;21084;-84
2021/04/06 02:25:29;;;;;;;11.67;6.27;;;;;;;0.70;60.16;95854.77;1772648;79;21124;-82
2021/04/06 02:27:58;;;;;;;10.97;6.27;;;;;;;0.69;60.79;95853.09;1753450;81;21222;-83
2021/04/06 02:30:31;;;;;;;13.83;6.70;;;;;;;0.70;60.65;95847.43;1732721;82;21167;-84
2021/04/06 02:33:02;;;;;;;7.93;5.53;;;;;;;0.71;60.80;95849.11;1778530;79;21209;-83
2021/04/06 02:35:30;;;;;;;13.37;7.03;;;;;;;0.70;61.09;95834.47;1812734;79;21079;-84
2021/04/06 02:37:57;;;;;;;10.53;6.20;;;;;;;0.73;61.07;95836.44;1784753;79;21233;-82
2021/04/06 02:40:26;;;;;;;13.17;7.07;;;;;;;0.74;60.96;95833.36;1795803;79;21293;-85
2021/04/06 02:42:57;;;;;;;10.17;5.53;;;;;;;0.75;60.91;95830.66;1784511;80;21213;-85
2021/04/06 02:45:30;;;;;;;8.80;6.07;;;;;;;0.78;60.75;95832.27;1784486;80;21776;-84
2021/04/06 02:50:48;;;;;;;7.55;5.47;;;;;;;0.74;61.22;95838.55;1807723;79;27086;-85
2021/04/06 02:53:21;;;;;;;10.40;5.80;;;;;;;0.69;61.54;95835.42;1796319;78;21247;-84
2021/04/06 02:55:50;;;;;;;12.07;6.90;;;;;;;0.69;61.05;95834.13;1798100;80;21247;-84
2021/04/06 02:58:26;;;;;;;14.03;7.87;;;;;;;0.69;61.28;95831.05;1797926;80;21121;-84
2021/04/06 03:01:18;;;;;;;12.10;6.97;;;;;;;0.68;61.58;95821.59;1814856;78;21265;-84
2021/04/06 03:03:48;;;;;;;15.50;8.00;;;;;;;0.59;61.04;95830.79;1809855;78;21232;-82
2021/04/06 03:06:23;;;;;;;13.37;8.03;;;;;;;0.57;61.48;95824.86;1832003;78;21231;-85
2021/04/06 03:09:06;;;;;;;12.73;7.50;;;;;;;0.59;61.67;95826.90;1831286;78;21193;-85
2021/04/06 03:11:41;;;;;;;11.33;6.93;;;;;;;0.59;61.96;95819.13;1772549;80;21224;-82
2021/04/06 03:14:09;;;;;;;11.00;7.33;;;;;;;0.59;61.65;95809.19;1800855;78;21243;-83
2021/04/06 03:16:38;;;;;;;11.77;6.83;;;;;;;0.57;61.85;95808.45;1831681;78;21237;-85
2021/04/06 03:19:07;;;;;;;11.53;7.33;;;;;;;0.51;61.89;95819.20;1832055;78;21486;-84
2021/04/06 03:21:35;;;;;;;12.40;7.67;;;;;;;0.49;61.93;95814.56;1832267;78;21285;-84
2021/04/06 03:24:04;;;;;;;14.60;7.73;;;;;;;0.52;61.74;95809.20;1832134;78;21127;-82
2021/04/06 03:26:33;;;;;;;15.10;7.90;;;;;;;0.54;62.12;95809.47;1832211;78;21174;-83
2021/04/06 03:29:02;;;;;;;14.73;8.53;;;;;;;0.53;62.10;95812.98;1832246;78;21130;-83
2021/04/06 03:31:33;;;;;;;16.23;8.70;;;;;;;0.51;62.11;95816.13;1823122;78;21108;-83
2021/04/06 03:34:01;;;;;;;14.93;7.90;;;;;;;0.50;62.45;95820.12;1830150;78;21245;-85
2021/04/06 03:36:32;;;;;;;13.40;7.00;;;;;;;0.48;62.21;95811.15;1805137;78;21254;-84
2021/04/06 03:39:07;;;;;;;13.17;6.93;;;;;;;0.50;62.65;95809.75;1831989;78;21264;-83
2021/04/06 03:41:35;;;;;;;11.17;7.50;;;;;;;0.54;63.36;95811.25;1808216;77;21308;-83
2021/04/06 03:44:10;;;;;;;13.13;6.87;;;;;;;0.55;63.14;95807.25;1730398;83;21609;-82
2021/04/06 03:46:40;;;;;;;12.13;7.17;;;;;;;0.57;63.09;95810.59;1730423;83;21163;-85
2021/04/06 03:49:26;;;;;;;10.50;7.00;;;;;;;0.59;63.00;95805.30;1726710;81;21176;-84
2021/04/06 03:52:08;;;;;;;9.85;6.80;;;;;;;0.60;63.11;95806.97;1683353;85;21277;-84
2021/04/06 03:54:44;;;;;;;16.70;8.53;;;;;;;0.55;62.74;95809.84;1708819;84;21146;-83
2021/04/06 03:57:51;;;;;;;20.48;10.75;;;;;;;0.54;63.29;95814.66;1697265;85;21615;-82
2021/04/06 04:00:18;;;;;;;18.02;9.05;;;;;;;0.55;62.70;95813.73;1744088;82;21299;-83
2021/04/06 04:02:47;;;;;;;13.20;7.67;;;;;;;0.56;62.79;95815.85;1704409;82;21272;-84
2021/04/06 04:05:14;;;;;;;15.27;9.23;;;;;;;0.57;62.67;95813.63;1721418;82;21126;-83
2021/04/06 04:07:42;;;;;;;17.00;8.63;;;;;;;0.61;62.67;95808.64;1742080;82;21158;-84
2021/04/06 04:10:11;;;;;;;15.40;7.97;;;;;;;0.65;62.59;95808.81;1732506;83;21287;-84
2021/04/06 04:12:39;;;;;;;18.27;8.60;;;;;;;0.70;63.94;95809.37;1756721;82;21320;-83
2021/04/06 04:15:09;;;;;;;17.87;10.30;;;;;;;0.73;62.36;95801.86;1757094;82;21280;-84
2021/04/06 04:17:36;;;;;;;15.80;8.00;;;;;;;0.78;62.35;95804.55;1756920;81;21260;-84
2021/04/06 04:20:11;;;;;;;11.77;7.47;;;;;;;0.83;62.59;95802.97;1756943;82;21308;-83
2021/04/06 04:22:38;;;;;;;20.43;11.17;;;;;;;0.91;62.65;95802.50;1757014;82;21663;-84
2021/04/06 04:25:08;;;;;;;16.57;9.43;;;;;;;1.02;62.39;95800.52;1746940;82;21144;-83
2021/04/06 04:27:36;;;;;;;13.35;8.28;;;;;;;1.09;62.23;95806.53;1706268;82;21301;-84
2021/04/06 04:30:06;;;;;;;17.25;9.15;;;;;;;1.20;62.09;95801.14;1726850;83;21605;-84
2021/04/06 04:32:35;;;;;;;19.17;9.30;;;;;;;1.28;62.10;95802.77;1726350;83;21623;-84
2021/04/06 04:35:04;;;;;;;18.48;9.50;;;;;;;1.34;61.66;95795.88;1727154;83;21302;-85
2021/04/06 04:37:31;;;;;;;17.17;8.55;;;;;;;1.40;61.48;95799.85;1720319;83;21297;-83
2021/04/06 04:39:59;;;;;;;17.32;8.38;;;;;;;1.43;61.32;95794.47;1696601;85;21265;-83
2021/04/06 04:42:28;;;;;;;19.10;9.55;;;;;;;1.49;61.19;95799.26;1746028;82;21609;-84
2021/04/06 04:44:55;;;;;;;19.27;9.40;;;;;;;1.56;61.94;95797.11;1725634;83;21569;-82
2021/04/06 04:47:23;;;;;;;11.83;7.42;;;;;;;1.68;61.83;95788.97;1726578;83;21661;-85
2021/04/06 04:49:50;;;;;;;15.20;8.85;;;;;;;1.64;61.29;95792.23;1729483;83;21151;-81
2021/04/06 04:52:17;;;;;;;15.93;9.60;;;;;;;1.68;61.37;95785.89;1731395;83;21264;-83
2021/04/06 04:54:44;;;;;;;14.50;9.30;;;;;;;1.81;61.36;95778.59;1728192;83;21537;-83
2021/04/06 04:57:11;;;;;;;19.20;9.38;;;;;;;1.96;61.31;95780.64;1728260;83;21131;-84
2021/04/06 04:59:39;;;;;;;18.10;9.38;;;;;;;2.13;61.20;95776.92;1728382;83;21154;-85
2021/04/06 05:02:06;;;;;;;22.37;9.55;;;;;;;2.41;61.13;95768.55;1728381;83;21143;-85
2021/04/06 05:04:34;;;;;;;19.98;9.08;;;;;;;2.88;61.23;95772.66;1728517;83;21198;-84
2021/04/06 05:07:04;;;;;;;18.92;9.10;;;;;;;3.41;60.74;95765.86;1732045;83;21525;-84
2021/04/06 05:09:38;;;;;;;15.48;8.98;;;;;;;3.79;59.88;95759.61;1732079;83;22574;-83
2021/04/06 05:12:10;;;;;;;17.10;9.33;;;;;;;4.01;58.89;95765.34;1732814;83;21134;-84
2021/04/06 05:14:44;;;;;;;18.75;9.53;;;;;;;4.17;58.29;95753.74;1733717;83;21286;-86
2021/04/06 05:17:13;;;;;;;17.17;10.55;;;;;;;4.35;58.32;95754.95;1738002;83;21383;-85
2021/04/06 05:19:42;;;;;;;30.62;10.48;;;;;;;4.55;57.48;95751.28;1738249;83;21538;-85
2021/04/06 05:22:10;;;;;;;27.00;11.45;;;;;;;4.61;56.69;95752.09;1737357;83;21297;-80
2021/04/06 05:24:37;;;;;;;21.70;11.78;;;;;;;4.48;56.19;95760.53;1728318;83;21237;-84
2021/04/06 05:27:06;;;;;;;31.40;12.68;;;;;;;4.49;56.54;95755.68;1736207;83;21318;-84
2021/04/06 05:29:34;;;;;;;16.50;11.38;;;;;;;4.46;56.26;95752.81;1737571;83;21620;-86
2021/04/06 05:32:01;;;;;;;24.52;12.80;;;;;;;4.40;56.52;95753.78;1738246;83;21309;-83
2021/04/06 05:34:31;;;;;;;23.57;10.85;;;;;;;4.37;56.35;95756.97;1729819;83;21210;-83
2021/04/06 05:36:58;;;;;;;25.80;11.25;;;;;;;4.28;56.17;95755.52;1731238;83;21404;-84
2021/04/06 05:39:25;;;;;;;22.30;12.10;;;;;;;3.94;56.13;95749.81;1728717;83;21138;-85
2021/04/06 05:41:52;;;;;;;22.82;12.45;;;;;;;3.68;56.59;95742.14;1735346;83;21080;-85
2021/04/06 05:44:22;;;;;;;18.37;11.57;;;;;;;3.48;57.02;95742.31;1733077;83;21145;-85
2021/04/06 05:46:52;;;;;;;13.58;7.10;;;;;;;3.38;57.36;95742.63;1728667;83;21139;-86
2021/04/06 05:49:27;;;;;;;31.15;12.80;;;;;;;3.38;57.54;95740.87;1729128;82;21592;-84
2021/04/06 05:51:55;;;;;;;23.57;12.50;;;;;;;3.30;57.46;95736.66;1735068;81;21155;-84
2021/04/06 05:54:25;;;;;;;25.55;12.90;;;;;;;3.40;57.62;95738.14;1789971;80;21153;-84
2021/04/06 05:56:52;;;;;;;21.15;12.45;;;;;;;3.44;57.55;95740.41;1790032;80;21141;-82
2021/04/06 05:59:22;;;;;;;21.50;12.95;;;;;;;3.51;57.72;95745.16;1776066;79;21128;-84
2021/04/06 06:01:50;;;;;;;24.57;13.20;;;;;;;3.53;57.31;95739.38;1771763;79;21115;-83
2021/04/06 06:04:19;;;;;;;28.00;12.78;;;;;;;3.43;57.43;95736.14;1794028;79;21243;-83
2021/04/06 06:06:48;;;;;;;37.23;13.15;;;;;;;3.47;57.54;95730.72;1765268;80;21551;-82
2021/04/06 06:09:31;;;;;;;26.70;12.05;;;;;;;3.46;57.81;95736.38;1779194;79;21271;-80
2021/04/06 06:12:12;;;;;;;29.23;14.60;;;;;;;3.58;58.65;95733.34;1789280;79;21129;-81
2021/04/06 06:14:42;;;;;;;24.70;13.68;;;;;;;3.75;57.89;95738.16;1811884;79;21134;-81
2021/04/06 06:17:23;;;;;;;31.57;14.58;;;;;;;3.97;57.63;95740.44;1798080;79;21157;-80
2021/04/06 06:19:54;;;;;;;29.75;16.00;;;;;;;4.11;57.17;95742.00;1796498;79;21247;-80
2021/04/06 06:22:32;;;;;;;21.02;10.13;;;;;;;4.22;56.83;95745.11;1792226;79;21252;-81
2021/04/06 06:25:11;;;;;;;32.35;17.82;;;;;;;4.41;56.71;95738.48;1777295;79;21263;-81
2021/04/06 06:27:47;;;;;;;30.50;16.62;;;;;;;4.48;56.58;95726.61;1807044;79;21582;-80
2021/04/06 06:30:33;;;;;;;22.22;13.88;;;;;;;4.66;56.27;95733.01;1796056;79;21258;-82
2021/04/06 06:33:19;;;;;;;30.80;17.85;;;;;;;4.86;55.98;95735.84;1796617;79;21251;-81
2021/04/06 06:35:59;;;;;;;32.13;18.17;;;;;;;5.09;55.83;95730.55;1791145;80;21247;-82
2021/04/06 06:39:03;;;;;;;34.08;21.05;;;;;;;5.50;54.73;95729.45;1791471;79;21172;-83
2021/04/06 06:42:11;;;;;;;33.45;17.77;;;;;;;5.88;54.52;95718.47;1791307;79;21136;-80
2021/04/06 06:44:46;;;;;;;30.62;19.30;;;;;;;6.17;54.06;95715.20;1779068;81;21278;-83
2021/04/06 06:47:25;;;;;;;25.23;11.22;;;;;;;6.23;53.28;95714.70;1784247;80;21133;-83
2021/04/06 06:49:55;;;;;;;26.90;15.38;;;;;;;6.09;51.64;95717.64;1790717;80;21323;-83
2021/04/06 06:52:28;;;;;;;32.23;19.00;;;;;;;5.67;52.43;95715.02;1763224;80;21283;-82
2021/04/06 06:55:01;;;;;;;37.93;19.73;;;;;;;5.62;52.87;95724.05;1790719;80;21264;-83
2021/04/06 06:57:33;;;;;;;26.65;14.38;;;;;;;5.61;52.51;95715.85;1790839;80;21260;-83
2021/04/06 07:00:15;;;;;;;31.17;16.02;;;;;;;5.51;52.72;95710.20;1791039;80;21160;-83
2021/04/06 07:02:43;;;;;;;35.98;21.15;;;;;;;5.30;53.19;95717.07;1790882;80;21252;-81
2021/04/06 07:05:23;;;;;;;39.67;22.48;;;;;;;5.20;53.60;95714.84;1790766;80;21274;-82
2021/04/06 07:08:03;;;;;;;41.33;21.55;;;;;;;5.20;53.84;95706.20;1790931;80;21264;-82
2021/04/06 07:10:38;;;;;;;49.55;24.82;;;;;;;5.20;54.08;95704.40;1791258;80;21095;-83
2021/04/06 07:13:28;;;;;;;41.23;21.70;;;;;;;5.23;54.00;95713.30;1792282;80;21260;-86
2021/04/06 07:15:57;;;;;;;41.92;22.17;;;;;;;5.20;54.15;95710.93;1792295;80;21110;-85
2021/04/06 07:18:27;;;;;;;30.15;20.35;;;;;;;5.21;54.23;95715.20;1764420;80;21228;-86
2021/04/06 07:20:58;;;;;;;37.60;22.37;;;;;;;5.28;54.31;95715.05;1792361;80;21291;-83
2021/04/06 07:23:45;;;;;;;37.13;18.35;;;;;;;5.37;54.21;95703.04;1792235;80;21239;-82
2021/04/06 07:26:20;;;;;;;38.15;21.30;;;;;;;5.50;54.01;95695.02;1791934;80;21224;-82
2021/04/06 07:28:48;;;;;;;36.40;20.00;;;;;;;5.51;54.00;95687.53;1792394;80;21216;-82
2021/04/06 07:31:16;;;;;;;31.70;20.35;;;;;;;5.59;54.14;95687.72;1792333;80;21113;-87
2021/04/06 07:33:47;;;;;;;27.02;16.00;;;;;;;5.68;54.12;95680.89;1792331;80;21268;-83
2021/04/06 07:36:26;;;;;;;28.77;17.20;;;;;;;5.75;53.90;95680.72;1792470;80;21117;-83
2021/04/06 07:38:59;;;;;;;27.32;13.32;;;;;;;5.63;53.97;95683.06;1792455;80;21189;-83
2021/04/06 07:41:33;;;;;;;24.12;13.50;;;;;;;5.60;54.07;95684.16;1792354;80;21129;-81
2021/04/06 07:44:04;;;;;;;24.30;15.15;;;;;;;5.55;54.21;95685.00;1792383;80;21230;-81
2021/04/06 07:46:39;;;;;;;34.63;19.02;;;;;;;5.59;54.18;95677.27;1792434;80;21236;-82
2021/04/06 07:49:27;;;;;;;38.80;20.05;;;;;;;5.63;54.50;95683.88;1792364;80;21153;-82
2021/04/06 07:51:59;;;;;;;21.40;14.15;;;;;;;5.74;54.52;95679.55;1792220;80;21315;-82
2021/04/06 07:54:40;;;;;;;39.88;19.82;;;;;;;5.80;54.31;95673.80;1789601;80;21697;-81
2021/04/06 07:57:08;;;;;;;21.87;15.15;;;;;;;5.84;54.38;95660.83;1790306;79;21508;-80
2021/04/06 07:59:40;;;;;;;33.28;18.60;;;;;;;5.93;54.40;95665.78;1759397;81;21133;-81
2021/04/06 08:02:13;;;;;;;25.60;18.27;;;;;;;5.92;54.37;95671.96;1763223;80;21251;-84
2021/04/06 08:04:52;;;;;;;20.32;12.23;;;;;;;5.96;54.39;95665.50;1770558;79;21118;-81
2021/04/06 08:07:25;;;;;;;32.23;18.15;;;;;;;6.03;54.36;95665.84;1789951;79;21214;-84
2021/04/06 08:10:18;;;;;;;21.35;14.07;;;;;;;6.04;54.51;95669.63;1772163;79;21257;-80
2021/04/06 08:15:33;;;;;;;20.62;12.37;;;;;;;6.30;54.49;95654.82;1933466;74;26388;-84
2021/04/06 08:18:04;;;;;;;26.12;14.75;;;;;;;6.45;54.34;95660.49;1890380;74;21257;-80
2021/04/06 08:20:41;;;;;;;23.12;15.40;;;;;;;6.54;54.25;95649.22;1902596;74;21123;-79
2021/04/06 08:23:33;;;;;;;23.98;13.65;;;;;;;6.53;54.59;95655.45;1869718;76;21290;-78
2021/04/06 08:26:02;;;;;;;20.37;12.90;;;;;;;6.45;54.62;95651.33;1902824;75;21276;-80
2021/04/06 08:28:37;;;;;;;28.95;16.55;;;;;;;6.46;54.80;95647.76;1902101;75;21182;-80
2021/04/06 08:31:22;;;;;;;27.80;17.37;;;;;;;6.43;54.97;95655.89;1902146;75;21176;-80
2021/04/06 08:33:51;;;;;;;26.27;16.67;;;;;;;6.76;54.80;95640.80;1901628;75;21144;-81
2021/04/06 08:36:28;;;;;;;19.92;13.62;;;;;;;6.76;54.80;95640.80;1902256;75;21278;-79
2021/04/06 08:38:57;;;;;;;30.37;17.60;;;;;;;6.97;54.61;95638.07;1902169;75;21625;-80
2021/04/06 08:41:32;;;;;;;33.90;18.02;;;;;;;7.16;54.46;95624.16;1872325;75;21342;-81
2021/04/06 08:44:05;;;;;;;32.90;17.20;;;;;;;7.29;54.31;95618.64;1833735;77;21157;-80
2021/04/06 08:46:43;;;;;;;26.75;13.50;;;;;;;7.53;54.07;95617.36;1866968;77;21124;-80
2021/04/06 08:49:15;;;;;;;19.80;12.60;;;;;;;7.70;53.55;95594.83;1867013;77;21147;-80
2021/04/06 08:51:59;;;;;;;21.50;13.75;;;;;;;7.83;53.33;95600.27;1867803;77;21251;-81
2021/04/06 08:54:30;;;;;;;23.52;15.58;;;;;;;7.89;53.35;95603.61;1867597;77;21286;-79
2021/04/06 08:57:07;;;;;;;26.30;16.20;;;;;;;7.90;53.00;95605.27;1867652;77;21243;-80
2021/04/06 08:59:42;;;;;;;23.35;14.98;;;;;;;7.93;53.05;95611.55;1867726;77;21137;-80
2021/04/06 09:02:17;;;;;;;29.42;16.50;;;;;;;8.08;53.25;95607.48;1867609;77;21130;-80
2021/04/06 09:04:50;;;;;;;29.32;15.55;;;;;;;8.31;52.49;95613.66;1867915;77;21595;-81
2021/04/06 09:07:29;;;;;;;26.40;14.20;;;;;;;8.48;52.54;95604.71;1867672;77;21220;-79
2021/04/06 09:10:00;;;;;;;28.77;13.48;;;;;;;8.68;52.64;95606.73;1867770;77;21077;-81
2021/04/06 09:12:35;;;;;;;21.48;13.78;;;;;;;8.85;51.95;95609.05;1868569;77;21117;-85
2021/04/06 09:15:06;;;;;;;21.90;10.35;;;;;;;8.90;51.97;95611.57;1874120;76;21369;-81
2021/04/06 09:17:36;;;;;;;18.95;13.13;;;;;;;8.99;51.64;95609.83;1847799;76;21140;-79
2021/04/06 09:20:16;;;;;;;19.80;12.93;;;;;;;9.06;51.66;95620.08;1875653;76;21243;-81
2021/04/06 09:22:48;;;;;;;24.15;11.08;;;;;;;9.13;51.16;95611.61;1876106;76;21093;-84
2021/04/06 09:25:23;;;;;;;12.53;8.60;;;;;;;9.15;50.43;95609.16;1877335;76;21266;-88
2021/04/06 09:27:55;;;;;;;;;;;;;;;9.19;49.72;95605.73;1879855;76;21105;-84
2021/04/06 09:30:35;;;;;;;17.48;11.55;;;;;;;9.20;50.22;95606.08;1838262;78;20133;-79
2021/04/06 09:33:12;;;;;;;20.62;13.35;;;;;;;9.38;50.78;95604.27;1800241;79;21152;-82
2021/04/06 09:35:43;;;;;;;18.25;12.88;;;;;;;9.46;50.25;95602.66;1816473;79;21175;-85
2021/04/06 09:38:11;;;;;;;17.67;10.30;;;;;;;9.60;50.31;95605.23;1816709;79;21258;-82
2021/04/06 09:40:41;;;;;;;25.80;13.95;;;;;;;9.71;49.94;95600.20;1816266;78;21275;-85
2021/04/06 09:43:09;;;;;;;23.60;12.28;;;;;;;9.63;47.67;95608.88;1816577;79;21152;-88
2021/04/06 09:45:38;;;;;;;16.77;11.45;;;;;;;9.56;48.89;95607.84;1815926;79;21633;-87
2021/04/06 09:48:07;;;;;;;20.92;12.68;;;;;;;9.40;48.46;95604.09;1816673;78;21294;-88
2021/04/06 09:50:34;;;;;;;17.17;10.58;;;;;;;9.19;48.48;95584.70;1816912;79;21164;-90
2021/04/06 09:53:06;;;;;;;20.62;14.07;;;;;;;9.14;48.72;95604.06;1816866;79;21120;-79
2021/04/06 09:55:35;;;;;;;20.85;12.47;;;;;;;9.03;48.99;95603.31;1815522;79;21251;-83
2021/04/06 09:58:04;;;;;;;22.42;13.40;;;;;;;9.04;49.20;95590.98;1816855;79;21109;-84
2021/04/06 10:00:35;;;;;;;20.30;13.62;;;;;;;9.04;49.21;95596.23;1816826;79;21314;-85
2021/04/06 10:03:14;;;;;;;19.50;13.90;;;;;;;9.07;48.96;95593.32;1816872;79;21232;-81
2021/04/06 10:05:45;;;;;;;27.27;14.25;;;;;;;9.09;49.15;95590.53;1816813;79;21265;-90
2021/04/06 10:08:14;;;;;;;17.55;10.55;;;;;;;9.07;48.81;95586.75;1816726;79;21140;-81
2021/04/06 10:10:49;;;;;;;23.85;13.45;;;;;;;9.09;48.71;95586.12;1816531;79;21255;-90
2021/04/06 10:13:17;;;;;;;22.52;13.48;;;;;;;9.05;48.69;95583.44;1816594;79;21227;-79
2021/04/06 10:15:44;;;;;;;25.25;13.75;;;;;;;8.47;48.50;95496.20;1802349;79;21156;-80
2021/04/06 10:18:15;;;;;;;26.17;14.78;;;;;;;9.15;48.81;95586.81;1801506;80;21113;-78
2021/04/06 10:20:50;;;;;;;20.10;13.78;;;;;;;9.23;48.70;95582.13;1801592;80;21118;-82
2021/04/06 10:23:33;;;;;;;21.63;13.10;;;;;;;9.37;48.58;95585.51;1749939;81;21261;-80
2021/04/06 10:26:02;;;;;;;11.43;8.23;;;;;;;9.54;48.64;95586.94;1770942;81;21319;-85
2021/04/06 10:28:33;;;;;;;22.10;13.95;;;;;;;9.78;47.84;95589.41;1770985;81;21214;-79
2021/04/06 10:31:04;;;;;;;34.95;15.60;;;;;;;9.97;48.06;95584.41;1771133;81;21259;-81
2021/04/06 10:33:34;;;;;;;27.27;13.48;;;;;;;10.24;48.09;95585.19;1770464;81;21757;-77
2021/04/06 10:36:10;;;;;;;22.15;13.20;;;;;;;10.49;47.68;95580.06;1770411;81;21314;-84
2021/04/06 10:38:40;;;;;;;19.82;12.45;;;;;;;10.70;47.45;95579.63;1769760;80;21286;-82
2021/04/06 10:41:11;;;;;;;23.32;9.53;;;;;;;10.91;46.62;95575.20;1769933;80;21320;-80
2021/04/06 10:43:46;;;;;;;14.13;10.95;;;;;;;10.92;44.77;95569.77;1768053;81;21657;-80
2021/04/06 10:46:22;;;;;;;23.87;13.38;;;;;;;10.86;45.45;95566.47;1768622;81;21160;-81
2021/04/06 10:49:03;;;;;;;26.12;12.45;;;;;;;10.78;43.88;95566.45;1808055;79;21172;-88
2021/04/06 10:51:34;;;;;;;16.20;11.18;;;;;;;10.88;45.27;95568.45;1812081;79;21141;-83
2021/04/06 10:54:09;;;;;;;20.77;12.30;;;;;;;11.11;45.00;95566.48;1811404;79;21153;-87
2021/04/06 10:56:45;;;;;;;16.75;12.18;;;;;;;11.19;44.84;95559.89;1809808;79;21275;-80
2021/04/06 10:59:16;;;;;;;12.37;8.95;;;;;;;11.21;43.74;95563.19;1810812;79;21167;-86
2021/04/06 11:01:49;;;;;;;12.68;6.22;;;;;;;11.21;44.05;95566.34;1811025;79;21180;-81
2021/04/06 11:04:26;;;;;;;15.13;8.95;;;;;;;11.21;44.04;95568.47;1810647;79;21290;-88
2021/04/06 11:07:04;;;;;;;22.17;8.95;;;;;;;11.07;43.18;95562.03;1811656;79;21297;-81
2021/04/06 11:09:44;;;;;;;10.13;7.55;;;;;;;11.04;43.44;95570.77;1811804;79;21151;-80
2021/04/06 11:12:15;;;;;;;11.18;7.08;;;;;;;11.08;43.09;95567.64;1811290;79;21328;-81
2021/04/06 11:14:45;;;;;;;13.60;7.53;;;;;;;11.09;42.99;95566.66;1811231;79;21147;-88
2021/04/06 11:17:14;;;;;;;11.48;7.60;;;;;;;11.17;43.29;95569.80;1810674;79;21294;-87
2021/04/06 11:19:45;;;;;;;9.90;5.80;;;;;;;11.27;42.09;95562.22;1811389;79;21262;-86
2021/04/06 11:22:17;;;;;;;11.55;6.95;;;;;;;11.32;41.65;95559.39;1810996;79;21330;-81
2021/04/06 11:24:49;;;;;;;12.95;7.20;;;;;;;11.36;42.98;95553.31;1810800;79;21168;-87
2021/04/06 11:27:19;;;;;;;10.32;7.85;;;;;;;11.49;42.76;95554.94;1811036;79;21278;-84
2021/04/06 11:29:48;;;;;;;10.63;7.10;;;;;;;11.72;42.87;95559.02;1809657;78;21322;-80
2021/04/06 11:32:21;;;;;;;13.08;7.55;;;;;;;11.93;42.30;95559.47;1778823;81;21613;-90
2021/04/06 11:34:49;;;;;;;15.88;8.83;;;;;;;12.00;41.84;95553.38;1778902;81;21231;-87
2021/04/06 11:37:17;;;;;;;14.25;7.70;;;;;;;12.11;41.48;95550.85;1778347;81;21613;-90
2021/04/06 11:39:47;;;;;;;11.70;7.78;;;;;;;12.18;41.73;95559.77;1778535;79;21168;-91
2021/04/06 11:42:30;;;;;;;17.10;8.65;;;;;;;12.36;41.61;95551.25;1821246;79;24645;-85
2021/04/06 11:44:58;;;;;;;15.13;7.90;;;;;;;12.28;41.60;95549.49;1794523;80;21143;-86
2021/04/06 11:47:25;;;;;;;13.32;8.40;;;;;;;12.29;41.62;95545.34;1794281;80;21276;-91
2021/04/06 11:49:53;;;;;;;11.93;7.58;;;;;;;12.31;40.93;95547.81;1794206;80;21688;-92
2021/04/06 11:52:20;;;;;;;8.55;6.25;;;;;;;12.29;40.70;95551.14;1794752;80;21273;-83
2021/04/06 11:54:47;;;;;;;11.85;6.95;;;;;;;12.11;40.39;95547.41;1795202;80;21140;-89
2021/04/06 11:57:14;;;;;;;12.30;7.20;;;;;;;11.86;40.24;95554.06;1795195;80;21270;-84
2021/04/06 11:59:44;;;;;;;11.60;7.87;;;;;;;11.71;40.75;95549.97;1794565;80;21132;-89